Airfield :







YOU CAN JOIN US ON...

 
LOGIN :

Register | Disclaimer

   EN    FR    IT 

 









Legend :    VFR   Marginal VFR   IFR   Intensive IFR   Very Intensive IFR
Visi :
Ceiling :
>= 8 km
>= 3000ft
5 to 8 km
1000 to 3000 ft
1500m to 5 km
500 to 1000 ft
800 to 1500m
200 to 500 ft
< 800m
< 200 ft
Symbols :   Thunderstorms  Fog  Heavy snow  Heavy precipitations  Wind > 20 kt






- Airport Elevation : 175 ft
- IATA code : YLC


CYLC - Kimmirut

CURRENT METAR :
  • 011600Z 07005KT 15SM FEW097 BKN100 BKN300 M12/M21 A3102 RMK AS2AC3CC1 SLP514

EXPIRED METARs :
  • 011500Z 06007KT 15SM FEW072 BKN080 BKN300 M13/M21 A3102 RMK AS2AC3CC1 SLP514
  • 011400Z 07006KT 15SM FEW063 SCT083 BKN096 M15/M23 A3102 RMK SC2AS2AC3 SLP514

TAF N/A



MET'MAP, your aeronautical weather chart ! - Copyright ORBIFLY December 2007 - Disclaimer

ORBIFLY MET'MAP TEAM :

Programming & Development : Alexandra Zaïnal
Concept & original design : Baudouin d'Aumeries
Assistance for programming : Marc-Olivier Méhu
Technical & hardware support : Manuel Goepfert

Contact : metmap@orbifly.com




SOURCES & CREDITS :

   NOAA